Time;durP1;ratioP1;P1;durP2;ratioP2;P2;SDS_P1;SDS_P2;PMS_P1;PMS_P2;Temp;Humidity;BMP_temperature;BMP_pressure;BME280_temperature;BME280_humidity;BME280_pressure;Samples;Min_cycle;Max_cycle;Signal;HPM_P1;HPM_P2
2022/10/15 00:02:06;;;;;;;326.77;51.67;;;;;;;;;;5032313;28;20907;-60
2022/10/15 00:04:32;;;;;;;344.27;51.50;;;;;;;;;;5033783;28;20049;-60
2022/10/15 00:06:57;;;;;;;306.90;47.55;;;;;;;;;;5032048;28;20479;-60
2022/10/15 00:09:22;;;;;;;364.42;53.15;;;;;;;;;;5033012;28;20704;-60
2022/10/15 00:11:47;;;;;;;284.02;48.83;;;;;;;;;;5031694;28;20038;-60
2022/10/15 00:14:13;;;;;;;320.92;48.72;;;;;;;;;;5032525;28;20450;-60
2022/10/15 00:16:38;;;;;;;305.17;47.80;;;;;;;;;;5031673;28;20021;-60
2022/10/15 00:19:03;;;;;;;344.40;51.00;;;;;;;;;;5033460;28;20026;-60
2022/10/15 00:21:28;;;;;;;314.87;46.60;;;;;;;;;;5031607;28;20416;-59
2022/10/15 00:23:54;;;;;;;221.07;42.23;;;;;;;;;;5033060;28;20373;-60
2022/10/15 00:26:20;;;;;;;196.35;38.83;;;;;;;;;;5032952;28;20131;-60
2022/10/15 00:28:46;;;;;;;193.95;38.60;;;;;;;;;;5031192;28;20493;-59
2022/10/15 00:31:12;;;;;;;199.90;40.80;;;;;;;;;;5033162;28;20030;-60
2022/10/15 00:33:38;;;;;;;278.15;47.45;;;;;;;;;;5031327;28;20054;-60
2022/10/15 00:36:09;;;;;;;327.35;48.45;;;;;;;;;;5032964;28;20052;-59
2022/10/15 00:38:34;;;;;;;76.68;33.58;;;;;;;;;;5030267;28;20500;-60
2022/10/15 00:41:00;;;;;;;233.50;47.05;;;;;;;;;;5032735;28;20028;-59
2022/10/15 00:43:46;;;;;;;115.65;34.78;;;;;;;;;;5031000;28;20041;-60
2022/10/15 00:46:20;;;;;;;87.97;34.97;;;;;;;;;;5032759;28;20021;-59
2022/10/15 00:48:47;;;;;;;278.92;45.75;;;;;;;;;;5031382;28;20037;-59
2022/10/15 00:51:13;;;;;;;379.27;53.00;;;;;;;;;;5031948;28;20481;-60
2022/10/15 00:53:39;;;;;;;379.10;47.63;;;;;;;;;;5031220;28;20052;-60
2022/10/15 00:56:04;;;;;;;246.52;44.05;;;;;;;;;;5032664;28;20025;-59
2022/10/15 00:58:30;;;;;;;267.15;42.17;;;;;;;;;;5030459;28;20099;-59
2022/10/15 01:00:56;;;;;;;194.50;41.17;;;;;;;;;;5033057;28;20021;-59
2022/10/15 01:03:21;;;;;;;278.25;46.40;;;;;;;;;;5031036;28;20033;-59
2022/10/15 01:05:48;;;;;;;269.55;47.13;;;;;;;;;;5032040;28;20079;-60
2022/10/15 01:08:13;;;;;;;241.38;43.17;;;;;;;;;;5030838;28;20034;-60
2022/10/15 01:10:58;;;;;;;348.33;49.60;;;;;;;;;;5032081;28;20109;-60
2022/10/15 01:13:35;;;;;;;286.08;44.60;;;;;;;;;;5029844;28;20444;-60
2022/10/15 01:16:15;;;;;;;225.93;45.80;;;;;;;;;;5032488;28;20503;-59
2022/10/15 01:19:02;;;;;;;192.63;42.13;;;;;;;;;;5010939;28;20450;-60
2022/10/15 01:21:34;;;;;;;254.68;41.30;;;;;;;;;;5010939;28;20033;-60
2022/10/15 01:24:17;;;;;;;152.40;37.20;;;;;;;;;;5030912;28;20022;-60
2022/10/15 01:26:51;;;;;;;171.50;38.97;;;;;;;;;;5029587;28;20018;-60
2022/10/15 01:29:35;;;;;;;278.15;42.90;;;;;;;;;;5032176;28;20072;-60
2022/10/15 01:32:10;;;;;;;164.82;36.50;;;;;;;;;;5030056;28;20124;-60
2022/10/15 01:34:46;;;;;;;232.27;44.25;;;;;;;;;;5031732;28;20457;-61
2022/10/15 01:37:17;;;;;;;181.48;39.05;;;;;;;;;;5029790;28;20045;-58
2022/10/15 01:40:03;;;;;;;220.93;42.80;;;;;;;;;;5031799;28;20021;-60
2022/10/15 01:42:31;;;;;;;188.52;40.83;;;;;;;;;;5029275;28;20026;-60
2022/10/15 01:44:56;;;;;;;;;;;;;;;;;;5032386;28;20070;-60
2022/10/15 01:47:26;;;;;;;190.20;41.08;;;;;;;;;;5029872;28;19913;-59
2022/10/15 01:49:52;;;;;;;228.20;42.88;;;;;;;;;;5031336;28;20100;-59
2022/10/15 01:52:20;;;;;;;303.52;53.55;;;;;;;;;;5029991;28;20107;-59
2022/10/15 01:54:46;;;;;;;258.83;46.97;;;;;;;;;;5030951;28;20021;-59
2022/10/15 01:57:12;;;;;;;278.63;46.63;;;;;;;;;;5029938;28;20115;-60
2022/10/15 01:59:37;;;;;;;200.23;39.42;;;;;;;;;;5030643;28;20025;-60
2022/10/15 02:02:02;;;;;;;214.10;44.15;;;;;;;;;;5030217;28;20043;-60
2022/10/15 02:04:28;;;;;;;267.20;44.23;;;;;;;;;;5031048;28;20014;-60
2022/10/15 02:06:59;;;;;;;254.30;47.50;;;;;;;;;;5029954;28;20044;-60
2022/10/15 02:09:25;;;;;;;195.10;40.88;;;;;;;;;;5031218;28;20392;-60
2022/10/15 02:12:04;;;;;;;256.65;43.97;;;;;;;;;;5029809;28;20033;-60
2022/10/15 02:14:35;;;;;;;303.85;44.72;;;;;;;;;;5031219;28;20053;-60
2022/10/15 02:17:07;;;;;;;266.00;48.50;;;;;;;;;;5029667;28;20029;-59
2022/10/15 02:19:52;;;;;;;175.60;38.28;;;;;;;;;;5030608;28;20030;-60
2022/10/15 02:22:25;;;;;;;165.98;39.45;;;;;;;;;;5029024;28;20112;-60
2022/10/15 02:24:50;;;;;;;146.05;35.63;;;;;;;;;;5031151;28;20021;-60
2022/10/15 02:27:16;;;;;;;324.05;48.38;;;;;;;;;;5029367;28;20095;-60
2022/10/15 02:29:43;;;;;;;161.80;41.55;;;;;;;;;;5030872;28;20101;-59
2022/10/15 02:32:09;;;;;;;177.68;46.47;;;;;;;;;;5029397;28;20041;-59
2022/10/15 02:34:35;;;;;;;98.05;39.63;;;;;;;;;;5030375;28;20049;-59
2022/10/15 02:37:01;;;;;;;108.93;37.90;;;;;;;;;;5029289;28;20056;-59
2022/10/15 02:39:27;;;;;;;113.90;39.22;;;;;;;;;;5030393;28;20557;-60
2022/10/15 02:41:52;;;;;;;79.78;35.03;;;;;;;;;;5029569;28;20033;-60
2022/10/15 02:44:18;;;;;;;74.50;38.33;;;;;;;;;;5031294;28;20057;-59
2022/10/15 02:46:43;;;;;;;89.45;36.08;;;;;;;;;;5028832;28;20029;-61
2022/10/15 02:49:08;;;;;;;87.70;38.03;;;;;;;;;;5030192;28;20473;-60
2022/10/15 02:51:34;;;;;;;80.47;39.05;;;;;;;;;;5029221;28;20423;-61
2022/10/15 02:53:59;;;;;;;97.40;37.83;;;;;;;;;;5030513;28;20498;-60
2022/10/15 02:56:25;;;;;;;81.65;39.45;;;;;;;;;;5029041;28;20025;-59
2022/10/15 02:58:50;;;;;;;91.25;37.53;;;;;;;;;;5030685;28;20044;-60
2022/10/15 03:01:15;;;;;;;88.47;39.27;;;;;;;;;;5030531;28;20022;-60
2022/10/15 03:03:40;;;;;;;83.00;38.33;;;;;;;;;;5028623;28;20041;-60
2022/10/15 03:06:06;;;;;;;75.75;34.95;;;;;;;;;;5030872;28;20020;-61
2022/10/15 03:08:31;;;;;;;77.90;35.35;;;;;;;;;;5029042;28;20751;-62
2022/10/15 03:10:58;;;;;;;86.28;38.70;;;;;;;;;;5030623;28;20028;-62
2022/10/15 03:13:23;;;;;;;87.05;37.65;;;;;;;;;;5028614;28;20137;-62
2022/10/15 03:15:48;;;;;;;97.88;38.75;;;;;;;;;;5030419;28;20053;-62
2022/10/15 03:18:14;;;;;;;93.80;40.08;;;;;;;;;;5028808;28;20033;-60
2022/10/15 03:20:39;;;;;;;92.15;43.03;;;;;;;;;;5030229;28;20029;-58
2022/10/15 03:23:05;;;;;;;82.88;40.50;;;;;;;;;;5029133;28;20033;-58
2022/10/15 03:25:30;;;;;;;100.60;45.67;;;;;;;;;;5029821;28;20067;-58
2022/10/15 03:27:55;;;;;;;84.27;41.97;;;;;;;;;;5028926;28;20448;-60
2022/10/15 03:30:20;;;;;;;97.47;41.80;;;;;;;;;;5030264;28;20013;-60
2022/10/15 03:32:46;;;;;;;98.78;42.30;;;;;;;;;;5028720;28;20058;-60
2022/10/15 03:35:11;;;;;;;87.25;44.65;;;;;;;;;;5030470;28;20060;-59
2022/10/15 03:37:37;;;;;;;91.55;41.50;;;;;;;;;;5028560;28;20148;-59
2022/10/15 03:40:02;;;;;;;106.67;45.43;;;;;;;;;;5030499;28;20021;-59
2022/10/15 03:42:27;;;;;;;116.83;44.67;;;;;;;;;;5028605;28;20033;-59
2022/10/15 03:44:52;;;;;;;109.37;46.30;;;;;;;;;;5030633;28;21061;-59
2022/10/15 03:47:17;;;;;;;95.70;44.25;;;;;;;;;;5028763;28;20803;-59
2022/10/15 03:49:42;;;;;;;97.28;44.28;;;;;;;;;;5032831;28;20534;-59
2022/10/15 03:52:07;;;;;;;107.97;45.55;;;;;;;;;;5032658;28;20041;-59
2022/10/15 03:54:33;;;;;;;91.85;43.13;;;;;;;;;;5033198;28;20029;-59
2022/10/15 03:56:58;;;;;;;95.97;46.42;;;;;;;;;;5032426;28;20706;-59
2022/10/15 03:59:23;;;;;;;99.82;46.65;;;;;;;;;;5032970;28;20029;-59
2022/10/15 04:01:48;;;;;;;101.90;47.63;;;;;;;;;;5032254;28;20032;-59
2022/10/15 04:04:13;;;;;;;94.77;48.10;;;;;;;;;;5033742;28;20090;-60
2022/10/15 04:06:39;;;;;;;109.90;50.00;;;;;;;;;;5032077;28;20771;-60
2022/10/15 04:09:04;;;;;;;135.57;53.25;;;;;;;;;;5033306;28;20370;-59
2022/10/15 04:11:29;;;;;;;100.33;46.03;;;;;;;;;;5031570;28;20025;-59
2022/10/15 04:13:54;;;;;;;119.27;49.63;;;;;;;;;;5033304;28;20451;-59
2022/10/15 04:16:19;;;;;;;118.22;48.10;;;;;;;;;;5033132;28;20494;-59
2022/10/15 04:18:44;;;;;;;107.23;46.90;;;;;;;;;;5031787;28;20037;-60
2022/10/15 04:21:09;;;;;;;119.05;53.38;;;;;;;;;;5033293;28;20108;-60
2022/10/15 04:23:35;;;;;;;129.95;48.17;;;;;;;;;;5031251;28;20033;-59
2022/10/15 04:26:00;;;;;;;115.85;49.58;;;;;;;;;;5032462;28;20022;-59
2022/10/15 04:28:26;;;;;;;115.18;47.70;;;;;;;;;;5031384;28;20489;-59
2022/10/15 04:30:54;;;;;;;112.30;48.13;;;;;;;;;;5033338;28;20024;-59
2022/10/15 04:33:19;;;;;;;105.07;49.60;;;;;;;;;;5030946;28;20509;-59
2022/10/15 04:35:44;;;;;;;117.17;52.03;;;;;;;;;;5032879;28;20071;-60
2022/10/15 04:38:10;;;;;;;119.65;54.88;;;;;;;;;;5031465;28;20491;-60
2022/10/15 04:40:35;;;;;;;115.13;52.92;;;;;;;;;;5032846;28;20021;-60
2022/10/15 04:43:00;;;;;;;122.87;52.77;;;;;;;;;;5031626;28;20485;-60
2022/10/15 04:45:25;;;;;;;120.97;53.78;;;;;;;;;;5032834;28;20025;-60
2022/10/15 04:47:50;;;;;;;123.82;51.88;;;;;;;;;;5030880;28;20037;-60
2022/10/15 04:50:15;;;;;;;120.55;57.95;;;;;;;;;;5032466;28;20057;-60
2022/10/15 04:52:41;;;;;;;117.45;55.65;;;;;;;;;;5031093;28;20049;-60
2022/10/15 04:55:06;;;;;;;122.30;56.07;;;;;;;;;;5032596;28;20029;-59
2022/10/15 04:57:31;;;;;;;123.93;54.72;;;;;;;;;;5030487;28;20537;-60
2022/10/15 04:59:56;;;;;;;126.60;52.17;;;;;;;;;;5032613;28;20033;-59
2022/10/15 05:02:21;;;;;;;114.20;52.63;;;;;;;;;;5030812;28;20038;-59
2022/10/15 05:04:47;;;;;;;122.20;55.15;;;;;;;;;;5032247;28;20389;-59
2022/10/15 05:07:12;;;;;;;115.27;54.80;;;;;;;;;;5031301;28;20049;-60
2022/10/15 05:09:37;;;;;;;122.97;54.88;;;;;;;;;;5032035;28;20025;-60
2022/10/15 05:12:02;;;;;;;122.25;49.42;;;;;;;;;;5030862;28;20113;-61
2022/10/15 05:14:27;;;;;;;108.00;50.50;;;;;;;;;;5031982;28;20025;-62
2022/10/15 05:16:52;;;;;;;112.30;51.80;;;;;;;;;;5030627;28;20444;-61
2022/10/15 05:19:17;;;;;;;104.93;51.67;;;;;;;;;;5032417;28;20017;-61
2022/10/15 05:21:43;;;;;;;113.05;51.00;;;;;;;;;;5030551;28;20491;-61
2022/10/15 05:24:08;;;;;;;99.10;50.27;;;;;;;;;;5031785;28;20017;-61
2022/10/15 05:26:34;;;;;;;100.97;51.10;;;;;;;;;;5030129;28;20026;-62
2022/10/15 05:28:59;;;;;;;96.50;50.70;;;;;;;;;;5032254;28;20030;-62
2022/10/15 05:31:26;;;;;;;104.95;54.15;;;;;;;;;;5031161;28;20049;-61
2022/10/15 05:33:52;;;;;;;113.93;52.03;;;;;;;;;;5031746;28;20534;-62
2022/10/15 05:36:18;;;;;;;100.75;50.42;;;;;;;;;;5031742;28;20105;-60
2022/10/15 05:38:44;;;;;;;109.10;51.90;;;;;;;;;;5030086;28;20045;-60
2022/10/15 05:41:09;;;;;;;123.07;54.83;;;;;;;;;;5031554;28;20372;-60
2022/10/15 05:43:34;;;;;;;116.70;52.03;;;;;;;;;;5028722;28;20042;-58
2022/10/15 05:46:00;;;;;;;113.60;51.40;;;;;;;;;;5030936;28;20464;-58
2022/10/15 05:48:25;;;;;;;107.30;51.60;;;;;;;;;;5029696;28;20479;-58
2022/10/15 05:50:50;;;;;;;110.45;54.35;;;;;;;;;;5030835;28;20010;-57
2022/10/15 05:53:16;;;;;;;111.18;52.10;;;;;;;;;;5029785;28;20037;-58
2022/10/15 05:55:41;;;;;;;114.73;53.20;;;;;;;;;;5030513;28;20041;-58
2022/10/15 05:58:06;;;;;;;117.82;57.35;;;;;;;;;;5030204;28;20555;-58
2022/10/15 06:00:32;;;;;;;109.30;53.33;;;;;;;;;;5031112;28;20061;-57
2022/10/15 06:02:57;;;;;;;128.30;54.42;;;;;;;;;;5030151;28;20436;-58
2022/10/15 06:05:22;;;;;;;119.00;54.43;;;;;;;;;;5031286;28;20380;-58
2022/10/15 06:07:47;;;;;;;117.47;54.05;;;;;;;;;;5029565;28;20478;-57
2022/10/15 06:10:12;;;;;;;113.15;50.80;;;;;;;;;;5031000;28;20614;-58
2022/10/15 06:12:38;;;;;;;111.50;54.90;;;;;;;;;;5029256;28;20045;-57
2022/10/15 06:15:03;;;;;;;142.75;57.22;;;;;;;;;;5030956;28;20435;-58
2022/10/15 06:17:28;;;;;;;123.68;56.90;;;;;;;;;;5029171;28;20132;-57
2022/10/15 06:19:54;;;;;;;121.35;51.47;;;;;;;;;;5031003;28;20092;-58
2022/10/15 06:22:19;;;;;;;119.13;54.60;;;;;;;;;;5028893;28;20516;-58
2022/10/15 06:24:44;;;;;;;130.03;62.47;;;;;;;;;;5030839;28;20097;-58
2022/10/15 06:27:10;;;;;;;131.57;64.78;;;;;;;;;;5029703;28;20056;-58
2022/10/15 06:29:35;;;;;;;131.40;58.05;;;;;;;;;;5030861;28;20022;-58
2022/10/15 06:32:00;;;;;;;122.78;57.55;;;;;;;;;;5029211;28;20053;-57
2022/10/15 06:34:26;;;;;;;134.07;61.53;;;;;;;;;;5030367;28;20068;-58
2022/10/15 06:36:51;;;;;;;145.27;63.83;;;;;;;;;;5029631;28;20036;-58
2022/10/15 06:39:16;;;;;;;138.27;63.53;;;;;;;;;;5030687;28;20432;-58
2022/10/15 06:41:41;;;;;;;141.35;64.47;;;;;;;;;;5028198;28;20467;-57
2022/10/15 06:44:07;;;;;;;124.07;61.22;;;;;;;;;;5030136;28;20488;-57
2022/10/15 06:46:32;;;;;;;134.13;64.40;;;;;;;;;;5028416;28;20029;-58
2022/10/15 06:48:57;;;;;;;133.48;65.20;;;;;;;;;;5030354;28;20025;-58
2022/10/15 06:51:22;;;;;;;147.18;67.63;;;;;;;;;;5030465;28;20108;-58
2022/10/15 06:53:47;;;;;;;177.73;71.00;;;;;;;;;;5028754;28;20040;-58
2022/10/15 06:56:12;;;;;;;184.30;79.40;;;;;;;;;;5021169;28;20113;-58
2022/10/15 06:58:40;;;;;;;172.25;71.05;;;;;;;;;;5026993;28;21200;-58
2022/10/15 07:01:05;;;;;;;167.65;69.88;;;;;;;;;;5030206;28;20056;-58
2022/10/15 07:03:31;;;;;;;172.68;71.38;;;;;;;;;;5029034;28;20053;-58
2022/10/15 07:06:00;;;;;;;162.98;71.65;;;;;;;;;;5030686;28;20064;-58
2022/10/15 07:08:25;;;;;;;163.48;72.20;;;;;;;;;;5027440;28;20444;-58
2022/10/15 07:10:50;;;;;;;175.87;73.43;;;;;;;;;;5028969;28;20018;-58
2022/10/15 07:13:15;;;;;;;159.70;72.18;;;;;;;;;;5028667;28;20452;-58
2022/10/15 07:15:40;;;;;;;159.95;72.55;;;;;;;;;;5029596;28;20057;-58
2022/10/15 07:18:05;;;;;;;160.30;71.07;;;;;;;;;;5027775;28;20056;-58
2022/10/15 07:20:31;;;;;;;177.33;73.73;;;;;;;;;;5029931;28;20028;-60
2022/10/15 07:22:57;;;;;;;176.98;71.90;;;;;;;;;;5028276;28;20498;-57
2022/10/15 07:25:22;;;;;;;171.07;77.07;;;;;;;;;;5032952;28;20029;-57
2022/10/15 07:27:47;;;;;;;169.57;77.80;;;;;;;;;;5032171;28;20131;-57
2022/10/15 07:30:13;;;;;;;176.43;77.03;;;;;;;;;;5033594;28;20029;-56
2022/10/15 07:32:38;;;;;;;162.20;75.77;;;;;;;;;;5030632;28;20057;-57
2022/10/15 07:35:04;;;;;;;139.88;68.45;;;;;;;;;;5034282;28;20100;-57
2022/10/15 07:37:30;;;;;;;139.48;69.38;;;;;;;;;;5031337;28;20034;-57
2022/10/15 07:39:55;;;;;;;131.80;64.45;;;;;;;;;;5032276;28;20108;-57
2022/10/15 07:42:20;;;;;;;139.07;64.30;;;;;;;;;;5032275;28;20049;-58
2022/10/15 07:44:46;;;;;;;117.50;63.47;;;;;;;;;;5033364;28;20014;-57
2022/10/15 07:47:11;;;;;;;113.80;60.10;;;;;;;;;;5030610;28;20484;-57
2022/10/15 07:49:36;;;;;;;139.10;62.93;;;;;;;;;;5032885;28;20439;-57
2022/10/15 07:52:01;;;;;;;112.07;58.97;;;;;;;;;;5030532;28;20041;-57
2022/10/15 07:54:26;;;;;;;106.00;56.20;;;;;;;;;;5027239;28;20034;-57
2022/10/15 07:56:51;;;;;;;98.05;54.00;;;;;;;;;;5022279;28;20065;-57
2022/10/15 07:59:16;;;;;;;97.38;55.47;;;;;;;;;;5032571;28;20024;-57
2022/10/15 08:01:42;;;;;;;101.18;56.72;;;;;;;;;;5030773;28;20017;-57
2022/10/15 08:04:07;;;;;;;84.57;47.63;;;;;;;;;;5032771;28;20018;-57
2022/10/15 08:06:32;;;;;;;96.97;51.53;;;;;;;;;;5031015;28;20071;-57
2022/10/15 08:08:57;;;;;;;77.80;45.78;;;;;;;;;;5032449;28;20014;-57
2022/10/15 08:11:23;;;;;;;84.47;45.53;;;;;;;;;;5032741;28;20168;-56
2022/10/15 08:13:48;;;;;;;78.40;47.88;;;;;;;;;;5031315;28;20812;-57
2022/10/15 08:16:14;;;;;;;75.88;46.60;;;;;;;;;;5031336;28;20033;-56
2022/10/15 08:18:39;;;;;;;78.60;45.38;;;;;;;;;;5030976;28;20045;-57
2022/10/15 08:21:05;;;;;;;83.50;46.20;;;;;;;;;;5032350;28;20024;-57
2022/10/15 08:23:30;;;;;;;78.20;45.30;;;;;;;;;;5029294;28;20467;-56
2022/10/15 08:25:59;;;;;;;78.53;44.43;;;;;;;;;;5032575;28;20017;-57
2022/10/15 08:28:24;;;;;;;;;;;;;;;;;;5030818;28;20618;-56
2022/10/15 08:30:49;;;;;;;74.82;45.15;;;;;;;;;;5031641;28;19940;-57
2022/10/15 08:33:15;;;;;;;73.20;44.90;;;;;;;;;;5029504;28;20091;-56
2022/10/15 08:35:43;;;;;;;70.80;44.00;;;;;;;;;;5031238;28;20025;-57
2022/10/15 08:38:09;;;;;;;67.57;42.13;;;;;;;;;;5030588;28;20452;-56
2022/10/15 08:40:34;;;;;;;60.67;37.83;;;;;;;;;;5032011;28;20021;-56
2022/10/15 08:42:59;;;;;;;58.10;37.42;;;;;;;;;;5030414;28;20374;-56
2022/10/15 08:45:28;;;;;;;55.80;36.77;;;;;;;;;;5031915;28;20018;-57
2022/10/15 08:47:57;;;;;;;56.83;35.88;;;;;;;;;;5031222;28;20030;-57
2022/10/15 08:50:30;;;;;;;56.95;37.28;;;;;;;;;;5029054;28;20033;-57
2022/10/15 08:52:57;;;;;;;57.53;37.38;;;;;;;;;;5021057;28;20066;-56
2022/10/15 08:55:23;;;;;;;57.53;38.00;;;;;;;;;;5026152;28;20481;-57
2022/10/15 08:57:51;;;;;;;55.65;34.00;;;;;;;;;;5019732;28;20041;-57
2022/10/15 09:00:19;;;;;;;55.50;36.88;;;;;;;;;;5021197;28;20044;-57
2022/10/15 09:02:44;;;;;;;62.53;38.17;;;;;;;;;;5020990;28;20033;-57
2022/10/15 09:05:25;;;;;;;61.20;37.15;;;;;;;;;;5021020;28;20071;-59
2022/10/15 09:07:54;;;;;;;58.08;37.45;;;;;;;;;;5020391;28;20029;-57
2022/10/15 09:10:26;;;;;;;65.47;36.67;;;;;;;;;;5023190;28;20022;-57
2022/10/15 09:13:00;;;;;;;63.33;34.97;;;;;;;;;;5018808;28;20060;-57
2022/10/15 09:15:27;;;;;;;73.32;38.47;;;;;;;;;;5028809;28;20783;-57
2022/10/15 09:17:53;;;;;;;72.78;41.17;;;;;;;;;;5023192;28;20033;-57
2022/10/15 09:20:30;;;;;;;63.15;40.30;;;;;;;;;;5030202;28;20022;-57
2022/10/15 09:22:55;;;;;;;80.68;42.17;;;;;;;;;;5029799;28;20592;-57
2022/10/15 09:25:22;;;;;;;63.60;39.83;;;;;;;;;;5031795;28;20101;-57
2022/10/15 09:27:47;;;;;;;69.65;38.28;;;;;;;;;;5030226;28;20115;-57
2022/10/15 09:30:27;;;;;;;63.90;41.83;;;;;;;;;;5031867;28;20061;-57
2022/10/15 09:33:04;;;;;;;57.75;37.72;;;;;;;;;;5029871;28;20052;-58
2022/10/15 09:35:45;;;;;;;52.40;36.22;;;;;;;;;;5031062;28;20044;-57
2022/10/15 09:38:13;;;;;;;44.13;31.77;;;;;;;;;;5030253;28;20095;-57
2022/10/15 09:40:45;;;;;;;51.30;31.40;;;;;;;;;;5030729;28;20033;-57
2022/10/15 09:43:11;;;;;;;38.28;30.35;;;;;;;;;;5028143;28;20045;-57
2022/10/15 09:45:37;;;;;;;41.97;31.50;;;;;;;;;;5030476;28;20025;-57
2022/10/15 09:48:05;;;;;;;50.70;34.55;;;;;;;;;;5029788;28;20107;-57
2022/10/15 09:50:38;;;;;;;48.30;30.60;;;;;;;;;;5030647;28;20033;-56
2022/10/15 09:53:23;;;;;;;39.33;28.38;;;;;;;;;;5030091;28;20068;-58
2022/10/15 09:56:05;;;;;;;41.08;30.23;;;;;;;;;;5031415;28;20053;-57
2022/10/15 09:58:46;;;;;;;36.80;27.08;;;;;;;;;;5028555;28;20048;-57
2022/10/15 10:01:25;;;;;;;38.33;27.17;;;;;;;;;;5031305;28;20397;-57
2022/10/15 10:04:07;;;;;;;39.67;30.17;;;;;;;;;;5023375;28;20034;-57
2022/10/15 10:06:41;;;;;;;39.58;29.13;;;;;;;;;;5025802;28;20615;-57
2022/10/15 10:09:15;;;;;;;41.58;27.98;;;;;;;;;;5019706;28;20022;-57
2022/10/15 10:12:06;;;;;;;41.38;29.92;;;;;;;;;;5028737;28;20427;-57
2022/10/15 10:14:33;;;;;;;31.77;23.70;;;;;;;;;;5026561;28;20116;-57
2022/10/15 10:17:16;;;;;;;28.75;23.33;;;;;;;;;;5029473;28;20029;-57
2022/10/15 10:19:42;;;;;;;30.10;25.02;;;;;;;;;;5030200;28;20032;-57
2022/10/15 10:22:19;;;;;;;36.20;24.00;;;;;;;;;;5029390;28;20116;-57
2022/10/15 10:24:46;;;;;;;41.57;26.10;;;;;;;;;;5030989;28;20018;-57
2022/10/15 10:27:17;;;;;;;25.75;22.17;;;;;;;;;;5029006;28;20033;-57
2022/10/15 10:29:46;;;;;;;32.10;23.83;;;;;;;;;;5030454;28;20427;-57
2022/10/15 10:32:17;;;;;;;24.38;21.55;;;;;;;;;;5028993;28;20121;-57
2022/10/15 10:34:43;;;;;;;26.77;20.75;;;;;;;;;;5030117;28;20374;-56
2022/10/15 10:37:10;;;;;;;24.67;20.08;;;;;;;;;;5029269;28;20038;-57
2022/10/15 10:39:35;;;;;;;23.23;17.52;;;;;;;;;;5030510;28;20021;-57
2022/10/15 10:42:03;;;;;;;15.50;13.77;;;;;;;;;;5028121;28;20403;-57
2022/10/15 10:44:39;;;;;;;19.13;14.13;;;;;;;;;;5029857;28;20048;-57
2022/10/15 10:47:07;;;;;;;19.20;12.85;;;;;;;;;;5028203;28;20041;-58
2022/10/15 10:49:33;;;;;;;14.52;13.02;;;;;;;;;;5029531;28;20079;-58
2022/10/15 10:51:58;;;;;;;18.85;12.60;;;;;;;;;;5029033;28;20045;-58
2022/10/15 10:54:24;;;;;;;14.40;12.13;;;;;;;;;;5030300;28;20029;-58
2022/10/15 10:56:51;;;;;;;13.23;11.48;;;;;;;;;;5028943;28;20048;-58
2022/10/15 10:59:24;;;;;;;15.20;13.07;;;;;;;;;;5034189;28;20037;-58
2022/10/15 11:01:49;;;;;;;12.70;11.35;;;;;;;;;;5020985;28;20405;-58
2022/10/15 11:04:24;;;;;;;14.45;12.20;;;;;;;;;;5024149;28;20025;-57
2022/10/15 11:07:10;;;;;;;20.15;12.38;;;;;;;;;;5024005;28;20031;-58
2022/10/15 11:09:44;;;;;;;14.57;13.07;;;;;;;;;;5015353;28;20396;-58
2022/10/15 11:12:12;;;;;;;16.45;12.57;;;;;;;;;;5026971;28;20464;-58
2022/10/15 11:14:43;;;;;;;16.70;13.70;;;;;;;;;;5023177;28;20040;-57
2022/10/15 11:17:27;;;;;;;15.55;12.40;;;;;;;;;;5023208;28;20528;-57
2022/10/15 11:20:04;;;;;;;13.90;12.48;;;;;;;;;;5031757;28;20399;-58
2022/10/15 11:22:36;;;;;;;14.52;13.00;;;;;;;;;;5032707;28;20041;-57
2022/10/15 11:25:07;;;;;;;14.73;13.05;;;;;;;;;;5033813;28;20049;-58
2022/10/15 11:27:50;;;;;;;15.73;13.23;;;;;;;;;;5025376;28;20040;-57
2022/10/15 11:30:33;;;;;;;16.00;13.93;;;;;;;;;;5033450;28;20500;-58
2022/10/15 11:33:17;;;;;;;14.82;12.50;;;;;;;;;;5031611;28;20136;-58
2022/10/15 11:35:47;;;;;;;17.52;15.77;;;;;;;;;;5032712;28;20057;-58
2022/10/15 11:38:18;;;;;;;16.30;14.55;;;;;;;;;;5031520;28;20048;-58
2022/10/15 11:41:01;;;;;;;16.70;15.10;;;;;;;;;;5032656;28;20461;-58
2022/10/15 11:44:02;;;;;;;14.95;13.43;;;;;;;;;;5031991;28;20451;-58
2022/10/15 11:46:36;;;;;;;16.65;13.57;;;;;;;;;;5009769;28;20065;-57
2022/10/15 11:49:13;;;;;;;15.50;13.90;;;;;;;;;;5029319;28;20034;-58
2022/10/15 11:51:53;;;;;;;15.40;13.80;;;;;;;;;;5031612;28;20025;-59
2022/10/15 11:54:19;;;;;;;14.07;11.85;;;;;;;;;;5033309;28;20030;-58
2022/10/15 11:56:48;;;;;;;11.95;10.75;;;;;;;;;;5031632;28;20029;-58
2022/10/15 11:59:13;;;;;;;15.82;11.70;;;;;;;;;;5033592;28;20009;-58
2022/10/15 12:01:42;;;;;;;13.80;12.48;;;;;;;;;;5030843;28;20022;-58
2022/10/15 12:04:08;;;;;;;;;;;;;;;;;;5033702;28;20022;-58
2022/10/15 12:06:35;;;;;;;10.60;9.05;;;;;;;;;;5031826;28;19905;-58
2022/10/15 12:09:02;;;;;;;12.18;10.65;;;;;;;;;;5032169;28;20017;-58
2022/10/15 12:11:36;;;;;;;12.05;10.82;;;;;;;;;;5028832;28;20082;-57
2022/10/15 12:14:10;;;;;;;9.60;8.70;;;;;;;;;;5019235;28;20423;-58
2022/10/15 12:16:35;;;;;;;11.43;10.15;;;;;;;;;;5030835;28;20025;-58
2022/10/15 12:19:03;;;;;;;12.80;9.88;;;;;;;;;;5032847;28;20031;-58
2022/10/15 12:21:31;;;;;;;10.30;9.40;;;;;;;;;;5030560;28;20022;-58
2022/10/15 12:23:56;;;;;;;13.50;9.40;;;;;;;;;;5033432;28;20013;-58
2022/10/15 12:26:24;;;;;;;13.57;10.35;;;;;;;;;;5032484;28;20366;-58
2022/10/15 12:28:51;;;;;;;9.57;8.68;;;;;;;;;;5031483;28;20033;-58
2022/10/15 12:31:19;;;;;;;9.55;8.55;;;;;;;;;;5032852;28;20013;-58
2022/10/15 12:33:46;;;;;;;9.63;8.07;;;;;;;;;;5031013;28;20535;-58
2022/10/15 12:36:17;;;;;;;8.68;8.07;;;;;;;;;;5032920;28;20440;-58
2022/10/15 12:38:50;;;;;;;10.65;9.80;;;;;;;;;;5030595;28;20030;-58
2022/10/15 12:41:15;;;;;;;8.85;7.95;;;;;;;;;;5032159;28;20028;-57
2022/10/15 12:43:47;;;;;;;11.30;8.85;;;;;;;;;;5030752;28;20045;-57
2022/10/15 12:46:13;;;;;;;9.05;8.25;;;;;;;;;;5022241;28;20025;-58
2022/10/15 12:48:42;;;;;;;10.35;9.30;;;;;;;;;;5028105;28;20030;-58
2022/10/15 12:51:22;;;;;;;9.55;8.65;;;;;;;;;;5032810;28;20030;-58
2022/10/15 12:53:51;;;;;;;21.15;11.75;;;;;;;;;;5031309;28;20029;-58
2022/10/15 12:56:16;;;;;;;10.20;9.25;;;;;;;;;;5032171;28;20022;-58
2022/10/15 12:58:46;;;;;;;9.77;8.82;;;;;;;;;;5030476;28;20045;-58
2022/10/15 13:01:14;;;;;;;10.30;9.10;;;;;;;;;;5032379;28;20405;-58
2022/10/15 13:03:42;;;;;;;10.15;8.23;;;;;;;;;;5030552;28;20037;-58
2022/10/15 13:06:13;;;;;;;11.20;9.07;;;;;;;;;;5032149;28;20100;-58
2022/10/15 13:08:42;;;;;;;7.93;7.32;;;;;;;;;;5030623;28;20041;-58
2022/10/15 13:11:18;;;;;;;8.80;8.05;;;;;;;;;;5031489;28;20022;-58
2022/10/15 13:13:43;;;;;;;9.30;8.50;;;;;;;;;;5030048;28;20041;-61
2022/10/15 13:16:08;;;;;;;7.97;7.28;;;;;;;;;;5032081;28;20521;-58
2022/10/15 13:18:34;;;;;;;9.70;8.13;;;;;;;;;;5030057;28;20520;-57
2022/10/15 13:20:59;;;;;;;13.82;8.75;;;;;;;;;;5032068;28;20022;-57
2022/10/15 13:23:26;;;;;;;7.17;6.47;;;;;;;;;;5030034;28;20480;-58
2022/10/15 13:25:52;;;;;;;9.57;8.40;;;;;;;;;;5032007;28;20459;-58
2022/10/15 13:28:37;;;;;;;14.48;6.63;;;;;;;;;;5030959;28;20030;-58
2022/10/15 13:31:05;;;;;;;7.55;6.95;;;;;;;;;;5032247;28;20022;-57
2022/10/15 13:33:30;;;;;;;7.18;5.32;;;;;;;;;;5029587;28;20044;-57
2022/10/15 13:36:03;;;;;;;5.90;5.05;;;;;;;;;;5032064;28;20097;-58
2022/10/15 13:38:28;;;;;;;6.55;6.05;;;;;;;;;;5030512;28;20054;-57
2022/10/15 13:40:53;;;;;;;7.85;7.25;;;;;;;;;;5031432;28;20057;-57
2022/10/15 13:43:20;;;;;;;7.03;5.33;;;;;;;;;;5029846;28;20616;-57
2022/10/15 13:45:46;;;;;;;6.18;5.57;;;;;;;;;;5029958;28;20862;-57
2022/10/15 13:48:12;;;;;;;8.15;6.60;;;;;;;;;;5029575;28;20033;-57
2022/10/15 13:50:38;;;;;;;6.63;6.07;;;;;;;;;;5030542;28;20439;-56
2022/10/15 13:53:16;;;;;;;6.95;6.30;;;;;;;;;;5030376;28;20041;-56
2022/10/15 13:55:47;;;;;;;9.10;7.13;;;;;;;;;;5030782;28;20076;-56
2022/10/15 13:58:20;;;;;;;8.60;5.63;;;;;;;;;;5030140;28;20087;-56
2022/10/15 14:00:50;;;;;;;8.02;5.90;;;;;;;;;;5031848;28;20018;-56
2022/10/15 14:03:21;;;;;;;4.90;4.50;;;;;;;;;;5029309;28;20080;-56
2022/10/15 14:05:47;;;;;;;5.20;4.80;;;;;;;;;;5031293;28;20022;-56
2022/10/15 14:08:22;;;;;;;5.97;4.43;;;;;;;;;;5029771;28;20567;-56
2022/10/15 14:10:48;;;;;;;4.90;4.50;;;;;;;;;;5031242;28;20063;-56
2022/10/15 14:13:13;;;;;;;4.75;4.38;;;;;;;;;;5029782;28;20084;-56
2022/10/15 14:15:40;;;;;;;9.27;3.80;;;;;;;;;;5031452;28;20119;-56
2022/10/15 14:18:05;;;;;;;6.65;4.88;;;;;;;;;;5029250;28;20509;-56
2022/10/15 14:20:30;;;;;;;4.13;3.80;;;;;;;;;;5030489;28;20029;-56
2022/10/15 14:22:55;;;;;;;4.83;4.43;;;;;;;;;;5029715;28;20088;-56